createdAt,value
2023-03-04T00:03:28.784Z,14.50
2023-03-04T00:08:31.274Z,14.51
2023-03-04T00:13:33.508Z,14.56
2023-03-04T00:18:35.865Z,14.50
2023-03-04T00:23:38.226Z,14.38
2023-03-04T00:28:40.941Z,14.24
2023-03-04T00:33:44.729Z,14.25
2023-03-04T00:38:47.863Z,14.31
2023-03-04T00:43:49.986Z,14.44
2023-03-04T00:48:52.181Z,14.40
2023-03-04T00:53:54.304Z,13.84
2023-03-04T00:58:56.555Z,13.96
2023-03-04T01:03:58.823Z,14.24
2023-03-04T01:09:01.040Z,14.21
2023-03-04T01:14:03.220Z,14.28
2023-03-04T01:19:05.474Z,14.16
2023-03-04T01:24:07.689Z,14.28
2023-03-04T01:29:09.942Z,14.12
2023-03-04T01:34:12.172Z,14.00
2023-03-04T01:39:14.365Z,14.13
2023-03-04T01:44:16.607Z,14.09
2023-03-04T01:49:19.615Z,14.14
2023-03-04T01:54:23.071Z,14.08
2023-03-04T01:59:27.783Z,14.01
2023-03-04T02:04:33.226Z,14.02
2023-03-04T02:09:36.167Z,13.96
2023-03-04T02:14:39.690Z,14.04
2023-03-04T02:20:01.262Z,14.03
2023-03-04T02:25:15.431Z,13.82
2023-03-04T02:30:21.786Z,13.90
2023-03-04T02:35:24.054Z,13.86
2023-03-04T02:40:31.542Z,13.91
2023-03-04T02:45:39.815Z,13.97
2023-03-04T02:50:51.772Z,13.74
2023-03-04T02:55:54.154Z,13.85
2023-03-04T03:00:56.771Z,13.66
2023-03-04T03:05:58.963Z,13.69
2023-03-04T03:11:01.153Z,13.71
2023-03-04T03:16:03.439Z,13.73
2023-03-04T03:21:06.547Z,13.66
2023-03-04T03:26:08.782Z,13.63
2023-03-04T03:31:10.996Z,13.69
2023-03-04T03:36:13.191Z,13.68
2023-03-04T03:41:15.450Z,13.75
2023-03-04T03:46:17.880Z,13.67
2023-03-04T03:51:20.086Z,13.63
2023-03-04T03:56:22.284Z,13.45
2023-03-04T04:01:24.430Z,13.39
2023-03-04T04:06:27.103Z,13.48
2023-03-04T04:11:29.484Z,13.33
2023-03-04T04:16:31.800Z,13.18
2023-03-04T04:21:33.957Z,13.11
2023-03-04T04:26:36.201Z,13.08
2023-03-04T04:31:38.408Z,13.25
2023-03-04T04:36:41.392Z,13.35
2023-03-04T04:41:45.575Z,13.31
2023-03-04T04:46:47.757Z,13.25
2023-03-04T04:51:49.993Z,13.21
2023-03-04T04:56:52.133Z,13.13
2023-03-04T05:01:54.332Z,13.25
2023-03-04T05:06:56.729Z,13.27
2023-03-04T05:11:59.004Z,13.23
2023-03-04T05:17:01.327Z,13.46
2023-03-04T05:22:03.538Z,13.45
2023-03-04T05:27:05.685Z,13.57
2023-03-04T05:32:08.054Z,13.69
2023-03-04T05:37:10.756Z,13.65
2023-03-04T05:42:12.829Z,13.77
2023-03-04T05:47:14.995Z,13.61
2023-03-04T05:52:17.543Z,13.53
2023-03-04T05:57:19.720Z,13.61
2023-03-04T06:02:21.935Z,13.71
2023-03-04T06:07:24.149Z,13.90
2023-03-04T06:12:26.399Z,13.95
2023-03-04T06:17:28.698Z,13.90
2023-03-04T06:22:30.880Z,14.00
2023-03-04T06:27:33.067Z,13.97
2023-03-04T06:32:35.369Z,13.90
2023-03-04T06:37:38.203Z,13.90
2023-03-04T06:42:40.984Z,13.86
2023-03-04T06:47:45.461Z,13.93
2023-03-04T06:52:48.417Z,13.96
2023-03-04T06:57:51.035Z,13.89
2023-03-04T07:02:55.135Z,14.08
2023-03-04T07:07:57.673Z,14.18
2023-03-04T07:13:00.101Z,14.31
2023-03-04T07:18:02.419Z,14.49
2023-03-04T07:23:04.644Z,14.69
2023-03-04T07:28:06.812Z,14.71
2023-03-04T07:33:09.353Z,14.64
2023-03-04T07:38:11.759Z,14.68
2023-03-04T07:43:14.372Z,14.79
2023-03-04T07:48:16.551Z,14.78
2023-03-04T07:53:18.908Z,14.95
2023-03-04T07:58:21.407Z,14.85
2023-03-04T08:03:23.893Z,14.96
2023-03-04T08:08:26.349Z,14.95
2023-03-04T08:13:29.333Z,15.08
2023-03-04T08:18:31.614Z,15.53
2023-03-04T08:23:34.496Z,15.60
2023-03-04T08:28:37.360Z,15.63
2023-03-04T08:33:39.758Z,15.72
2023-03-04T08:38:42.476Z,15.56
2023-03-04T08:43:44.842Z,15.60
2023-03-04T08:48:47.196Z,15.71
2023-03-04T08:53:49.464Z,15.70
2023-03-04T08:58:51.670Z,15.91
2023-03-04T09:03:53.975Z,15.75
2023-03-04T09:08:56.288Z,16.00
2023-03-04T09:13:59.274Z,16.19
2023-03-04T09:19:01.644Z,16.27
2023-03-04T09:24:03.920Z,16.29
2023-03-04T09:29:06.949Z,16.46
2023-03-04T09:34:09.116Z,16.24
2023-03-04T09:39:11.430Z,16.30
2023-03-04T09:44:32.583Z,16.33
2023-03-04T09:49:38.883Z,16.19
2023-03-04T09:55:04.907Z,16.57
2023-03-04T10:00:21.520Z,16.62
2023-03-04T10:05:26.769Z,16.63
2023-03-04T10:10:37.811Z,16.95
2023-03-04T10:15:46.593Z,17.35
2023-03-04T10:21:09.722Z,17.62
2023-03-04T10:26:18.226Z,17.37
2023-03-04T10:31:37.025Z,17.24
2023-03-04T10:36:55.186Z,17.38
2023-03-04T10:42:03.339Z,17.34
2023-03-04T10:47:11.687Z,17.55
2023-03-04T10:52:27.274Z,17.58
2023-03-04T10:57:41.407Z,17.79
2023-03-04T11:02:45.101Z,17.94
2023-03-04T11:07:56.743Z,18.03
2023-03-04T11:12:59.423Z,18.01
2023-03-04T11:18:13.229Z,17.86
2023-03-04T11:23:40.933Z,17.49
2023-03-04T11:28:54.803Z,17.39
2023-03-04T11:34:06.043Z,17.44
2023-03-04T11:39:22.777Z,17.39
2023-03-04T11:44:25.801Z,17.28
2023-03-04T11:49:53.791Z,17.35
2023-03-04T11:55:05.445Z,17.16
2023-03-04T12:00:23.025Z,17.30
2023-03-04T12:05:25.123Z,17.35
2023-03-04T12:10:53.374Z,17.20
2023-03-04T12:16:10.580Z,17.18
2023-03-04T12:21:12.732Z,17.16
2023-03-04T12:26:20.700Z,17.20
2023-03-04T12:31:25.842Z,17.06
2023-03-04T12:37:04.000Z,16.77
2023-03-04T12:42:36.810Z,16.74
2023-03-04T12:48:07.257Z,16.69
2023-03-04T12:53:19.062Z,16.73
2023-03-04T12:58:32.924Z,16.64
2023-03-04T13:04:02.522Z,16.67
2023-03-04T13:09:38.039Z,16.83
2023-03-04T13:14:40.676Z,16.93
2023-03-04T13:20:11.384Z,17.00
2023-03-04T13:25:42.670Z,16.67
2023-03-04T13:30:58.049Z,16.91
2023-03-04T13:36:05.645Z,16.94
2023-03-04T13:41:31.416Z,17.00
2023-03-04T13:46:43.963Z,17.02
2023-03-04T13:51:46.759Z,16.91
2023-03-04T13:57:00.898Z,16.95
2023-03-04T14:02:11.957Z,17.05
2023-03-04T14:07:26.273Z,17.01
2023-03-04T14:12:31.594Z,17.04
2023-03-04T14:17:37.642Z,16.98
2023-03-04T14:22:40.759Z,17.03
2023-03-04T14:27:42.900Z,17.02
2023-03-04T14:32:48.439Z,17.11
2023-03-04T14:37:58.755Z,16.98
2023-03-04T14:43:08.476Z,17.26
2023-03-04T14:48:17.704Z,17.13
2023-03-04T14:53:23.498Z,17.18
2023-03-04T14:58:31.837Z,17.15
2023-03-04T15:03:35.127Z,17.29
2023-03-04T15:08:41.505Z,17.58
2023-03-04T15:13:50.764Z,17.66
2023-03-04T15:18:55.695Z,18.12
2023-03-04T15:23:57.969Z,18.71
2023-03-04T15:29:00.352Z,19.27
2023-03-04T15:34:02.737Z,19.43
2023-03-04T15:39:05.000Z,19.06
2023-03-04T15:44:07.703Z,18.62
2023-03-04T15:49:09.835Z,18.24
2023-03-04T15:54:14.721Z,17.95
2023-03-04T15:59:17.827Z,17.55
2023-03-04T16:04:20.200Z,17.35
2023-03-04T16:09:23.244Z,17.14
2023-03-04T16:14:25.795Z,17.00
2023-03-04T16:19:27.976Z,16.81
2023-03-04T16:24:34.512Z,16.78
2023-03-04T16:29:36.735Z,16.59
2023-03-04T16:34:38.940Z,16.48
2023-03-04T16:39:46.382Z,16.47
2023-03-04T16:44:52.098Z,16.35
2023-03-04T16:49:54.781Z,16.22
2023-03-04T16:54:57.852Z,16.08
2023-03-04T17:00:01.879Z,16.06
2023-03-04T17:05:04.782Z,15.95
2023-03-04T17:10:07.367Z,15.85
2023-03-04T17:15:14.338Z,15.80
2023-03-04T17:20:18.784Z,15.66
2023-03-04T17:25:20.908Z,15.33
2023-03-04T17:30:23.328Z,15.25
2023-03-04T17:35:26.207Z,15.12
2023-03-04T17:40:28.485Z,15.14
2023-03-04T17:45:30.601Z,15.24
2023-03-04T17:50:33.448Z,15.44
2023-03-04T17:55:35.729Z,15.46
2023-03-04T18:00:38.013Z,15.55
2023-03-04T18:05:40.610Z,15.70
2023-03-04T18:10:42.933Z,15.64
2023-03-04T18:15:46.360Z,15.67
2023-03-04T18:20:48.592Z,15.55
2023-03-04T18:25:51.426Z,15.60
2023-03-04T18:30:54.066Z,15.54
2023-03-04T18:36:05.969Z,15.42
2023-03-04T18:41:11.796Z,15.57
2023-03-04T18:46:29.129Z,15.51
2023-03-04T18:51:31.856Z,15.25
2023-03-04T18:56:51.952Z,15.34
2023-03-04T19:01:55.630Z,15.15
2023-03-04T19:06:59.361Z,15.08
2023-03-04T19:12:03.454Z,15.07
2023-03-04T19:17:05.618Z,15.14
2023-03-04T19:22:07.874Z,15.08
2023-03-04T19:27:10.052Z,15.02
2023-03-04T19:32:12.346Z,14.96
2023-03-04T19:37:16.035Z,15.00
2023-03-04T19:42:18.256Z,14.83
2023-03-04T19:47:20.436Z,14.74
2023-03-04T19:52:22.544Z,14.89
2023-03-04T19:57:24.697Z,14.92
2023-03-04T20:02:27.093Z,14.89
2023-03-04T20:07:29.448Z,14.80
2023-03-04T20:12:34.028Z,14.70
2023-03-04T20:17:36.947Z,14.75
2023-03-04T20:22:39.372Z,14.81
2023-03-04T20:27:41.584Z,14.62
2023-03-04T20:32:44.467Z,14.52
2023-03-04T20:37:46.671Z,14.50
2023-03-04T20:42:48.849Z,14.60
2023-03-04T20:47:51.257Z,14.68
2023-03-04T20:52:57.177Z,14.20
2023-03-04T20:58:02.373Z,14.43
2023-03-04T21:03:04.815Z,14.41
2023-03-04T21:08:06.930Z,14.47
2023-03-04T21:13:13.089Z,14.50
2023-03-04T21:18:16.337Z,14.40
2023-03-04T21:23:19.580Z,14.34
2023-03-04T21:28:21.825Z,14.40
2023-03-04T21:33:30.354Z,14.37
2023-03-04T21:38:32.546Z,14.29
2023-03-04T21:43:34.740Z,13.97
2023-03-04T21:48:37.353Z,13.85
2023-03-04T21:53:40.008Z,13.22
2023-03-04T21:58:42.606Z,13.32
2023-03-04T22:03:46.034Z,13.69
2023-03-04T22:08:52.800Z,13.89
2023-03-04T22:13:56.408Z,13.91
2023-03-04T22:19:00.287Z,13.87
2023-03-04T22:24:03.343Z,13.96
2023-03-04T22:29:05.957Z,13.93
2023-03-04T22:34:13.326Z,13.91
2023-03-04T22:39:20.874Z,14.09
2023-03-04T22:44:23.088Z,13.80
2023-03-04T22:49:25.254Z,13.89
2023-03-04T22:54:29.978Z,13.91
2023-03-04T22:59:32.457Z,13.61
2023-03-04T23:04:34.707Z,13.58
2023-03-04T23:09:36.859Z,13.53
2023-03-04T23:14:40.337Z,13.38
2023-03-04T23:19:42.526Z,13.36
2023-03-04T23:24:45.374Z,13.51
2023-03-04T23:29:47.775Z,13.57
2023-03-04T23:34:53.683Z,13.46
2023-03-04T23:39:56.175Z,13.16
2023-03-04T23:44:58.293Z,13.23
2023-03-04T23:50:00.968Z,13.10
2023-03-04T23:55:03.247Z,13.10
